Time;durP1;ratioP1;P1;durP2;ratioP2;P2;SDS_P1;SDS_P2;PMS_P1;PMS_P2;Temp;Humidity;BMP_temperature;BMP_pressure;BME280_temperature;BME280_humidity;BME280_pressure;Samples;Min_cycle;Max_cycle;Signal;HPM_P1;HPM_P2
2020/12/13 00:00:45;;;;;;;44.17;22.70;;;;;;;;;;5058609;28;20048;-88
2020/12/13 00:03:11;;;;;;;43.20;23.85;;;;;;;;;;5058359;28;20025;-87
2020/12/13 00:05:38;;;;;;;42.97;23.25;;;;;;;;;;5057616;28;20097;-88
2020/12/13 00:08:04;;;;;;;38.42;21.45;;;;;;;;;;5058797;28;20031;-88
2020/12/13 00:13:34;;;;;;;37.80;19.52;;;;;;;;;;5058521;28;20048;-86
2020/12/13 00:16:00;;;;;;;37.45;20.40;;;;;;;;;;5058323;28;20017;-88
2020/12/13 00:18:26;;;;;;;37.47;20.88;;;;;;;;;;5058180;28;20033;-88
2020/12/13 00:20:52;;;;;;;44.13;21.60;;;;;;;;;;5058272;28;20028;-87
2020/12/13 00:23:18;;;;;;;36.58;20.75;;;;;;;;;;5058219;28;20327;-89
2020/12/13 00:25:44;;;;;;;37.50;20.15;;;;;;;;;;5058024;28;20033;-87
2020/12/13 00:28:10;;;;;;;35.05;19.45;;;;;;;;;;5058110;28;20028;-87
2020/12/13 00:30:36;;;;;;;36.20;20.60;;;;;;;;;;5058360;28;20047;-87
2020/12/13 00:33:02;;;;;;;32.38;19.48;;;;;;;;;;5057912;28;20029;-88
2020/12/13 00:35:28;;;;;;;38.58;21.05;;;;;;;;;;5057021;28;20068;-87
2020/12/13 00:37:55;;;;;;;35.60;19.83;;;;;;;;;;5056990;28;20021;-87
2020/12/13 00:40:21;;;;;;;34.63;19.15;;;;;;;;;;5057899;28;20025;-88
2020/12/13 00:45:50;;;;;;;33.83;18.70;;;;;;;;;;5057888;28;20067;-87
2020/12/13 00:48:16;;;;;;;34.28;18.35;;;;;;;;;;5057764;28;20071;-88
2020/12/13 00:50:42;;;;;;;32.03;18.02;;;;;;;;;;5058105;28;20055;-88
2020/12/13 00:53:08;;;;;;;30.52;17.05;;;;;;;;;;5056895;28;20036;-87
2020/12/13 00:55:35;;;;;;;30.77;17.15;;;;;;;;;;5056386;28;20084;-88
2020/12/13 00:58:01;;;;;;;33.80;17.95;;;;;;;;;;5057472;28;20044;-87
2020/12/13 01:00:27;;;;;;;30.13;17.77;;;;;;;;;;5057541;28;20096;-87
2020/12/13 01:02:57;;;;;;;31.67;16.80;;;;;;;;;;5057601;28;20119;-87
2020/12/13 01:05:24;;;;;;;31.77;18.85;;;;;;;;;;5056565;28;20029;-88
2020/12/13 01:07:50;;;;;;;32.42;17.08;;;;;;;;;;5057834;28;20025;-87
2020/12/13 01:10:16;;;;;;;35.17;18.40;;;;;;;;;;5057824;28;20032;-87
2020/12/13 01:12:42;;;;;;;31.10;16.77;;;;;;;;;;5056497;28;20036;-88
2020/12/13 01:15:09;;;;;;;32.25;18.33;;;;;;;;;;5057283;28;20056;-87
2020/12/13 01:17:35;;;;;;;31.08;17.85;;;;;;;;;;5057464;28;20507;-87
2020/12/13 01:20:01;;;;;;;33.13;18.33;;;;;;;;;;5057271;28;20403;-87
2020/12/13 01:22:27;;;;;;;34.80;18.25;;;;;;;;;;5056340;28;20053;-86
2020/12/13 01:24:53;;;;;;;33.60;16.77;;;;;;;;;;5057651;28;20438;-87
2020/12/13 01:27:19;;;;;;;34.10;18.77;;;;;;;;;;5056413;28;20025;-87
2020/12/13 01:29:45;;;;;;;35.80;17.73;;;;;;;;;;5056954;28;20025;-88
2020/12/13 01:32:11;;;;;;;34.70;17.65;;;;;;;;;;5057661;28;20021;-86
2020/12/13 01:34:37;;;;;;;31.38;17.55;;;;;;;;;;5057530;28;20021;-86
2020/12/13 01:37:04;;;;;;;36.15;19.48;;;;;;;;;;5057148;28;20029;-86
2020/12/13 01:39:30;;;;;;;34.30;18.73;;;;;;;;;;5057333;28;20032;-87
2020/12/13 01:41:57;;;;;;;28.77;16.98;;;;;;;;;;5055853;28;20037;-86
2020/12/13 01:44:29;;;;;;;29.85;17.00;;;;;;;;;;5057262;28;20040;-87
2020/12/13 01:46:55;;;;;;;29.58;17.73;;;;;;;;;;5056949;28;20033;-86
2020/12/13 01:49:21;;;;;;;31.45;18.20;;;;;;;;;;5057287;28;20129;-88
2020/12/13 01:54:24;;;;;;;31.00;17.35;;;;;;;;;;5057422;28;20029;-87
2020/12/13 01:56:53;;;;;;;30.42;17.30;;;;;;;;;;5057459;28;20025;-87
2020/12/13 01:59:21;;;;;;;30.95;17.20;;;;;;;;;;5056867;28;20041;-88
2020/12/13 02:01:48;;;;;;;31.05;17.45;;;;;;;;;;5056231;28;20028;-88
2020/12/13 02:04:19;;;;;;;29.63;17.38;;;;;;;;;;5056124;28;20029;-87
2020/12/13 02:06:47;;;;;;;31.48;17.42;;;;;;;;;;5057191;28;20040;-88
2020/12/13 02:09:13;;;;;;;31.75;17.73;;;;;;;;;;5057214;28;20029;-86
2020/12/13 02:11:39;;;;;;;30.40;18.08;;;;;;;;;;5055845;28;20032;-87
2020/12/13 02:14:05;;;;;;;29.88;17.98;;;;;;;;;;5056753;28;20115;-87
2020/12/13 02:16:31;;;;;;;29.73;18.30;;;;;;;;;;5055681;28;20335;-87
2020/12/13 02:18:57;;;;;;;38.30;20.23;;;;;;;;;;5056910;28;20421;-87
2020/12/13 02:21:23;;;;;;;34.33;18.42;;;;;;;;;;5057073;28;20090;-86
2020/12/13 02:23:51;;;;;;;45.22;22.38;;;;;;;;;;5057073;28;20021;-88
2020/12/13 02:26:17;;;;;;;40.25;22.02;;;;;;;;;;5055572;28;20063;-89
2020/12/13 02:28:43;;;;;;;47.03;23.20;;;;;;;;;;5058383;28;20402;-89
2020/12/13 02:31:10;;;;;;;39.67;22.50;;;;;;;;;;5060324;28;20029;-88
2020/12/13 02:33:36;;;;;;;41.38;22.10;;;;;;;;;;5060244;28;20025;-88
2020/12/13 02:36:03;;;;;;;43.33;24.05;;;;;;;;;;5060152;28;20013;-88
2020/12/13 02:38:31;;;;;;;53.55;27.58;;;;;;;;;;5060430;28;20047;-87
2020/12/13 02:40:57;;;;;;;45.47;25.05;;;;;;;;;;5059075;28;20063;-88
2020/12/13 02:43:23;;;;;;;45.75;23.75;;;;;;;;;;5059179;28;20724;-87
2020/12/13 02:45:49;;;;;;;45.90;23.10;;;;;;;;;;5060095;28;20470;-87
2020/12/13 02:48:15;;;;;;;46.65;23.92;;;;;;;;;;5060065;28;20095;-86
2020/12/13 02:50:41;;;;;;;45.17;23.77;;;;;;;;;;5059102;28;20080;-87
2020/12/13 02:53:07;;;;;;;39.38;20.17;;;;;;;;;;5060018;28;20028;-87
2020/12/13 02:55:33;;;;;;;36.20;20.65;;;;;;;;;;5058996;28;20025;-88
2020/12/13 02:58:03;;;;;;;38.03;21.02;;;;;;;;;;5053376;28;20120;-88
2020/12/13 03:00:29;;;;;;;39.60;21.15;;;;;;;;;;5058854;28;20444;-87
2020/12/13 03:02:55;;;;;;;35.92;19.95;;;;;;;;;;5058775;28;20051;-87
2020/12/13 03:05:21;;;;;;;37.75;20.95;;;;;;;;;;5059865;28;20091;-88
2020/12/13 03:07:47;;;;;;;36.88;20.52;;;;;;;;;;5059932;28;20323;-87
2020/12/13 03:10:13;;;;;;;42.90;22.63;;;;;;;;;;5058732;28;20029;-88
2020/12/13 03:12:39;;;;;;;40.33;21.40;;;;;;;;;;5059898;28;20071;-87
2020/12/13 03:15:05;;;;;;;41.67;22.38;;;;;;;;;;5059871;28;20104;-86
2020/12/13 03:17:31;;;;;;;41.47;22.10;;;;;;;;;;5059257;28;20017;-86
2020/12/13 03:19:57;;;;;;;45.20;23.90;;;;;;;;;;5059657;28;20033;-86
2020/12/13 03:22:23;;;;;;;49.28;23.58;;;;;;;;;;5058490;28;20025;-86
2020/12/13 03:24:49;;;;;;;45.33;24.42;;;;;;;;;;5059590;28;20102;-87
2020/12/13 03:27:16;;;;;;;51.50;24.60;;;;;;;;;;5057880;28;20032;-86
2020/12/13 03:29:45;;;;;;;47.17;25.67;;;;;;;;;;5059162;28;20021;-87
2020/12/13 03:32:11;;;;;;;48.63;25.42;;;;;;;;;;5059153;28;20033;-87
2020/12/13 03:34:37;;;;;;;48.47;25.65;;;;;;;;;;5059598;28;20123;-87
2020/12/13 03:37:03;;;;;;;55.33;28.63;;;;;;;;;;5059500;28;20068;-86
2020/12/13 03:39:29;;;;;;;48.45;26.73;;;;;;;;;;5058423;28;20063;-87
2020/12/13 03:41:55;;;;;;;45.70;23.58;;;;;;;;;;5059076;28;20025;-87
2020/12/13 03:44:21;;;;;;;44.25;22.92;;;;;;;;;;5058957;28;20048;-86
2020/12/13 03:46:48;;;;;;;46.17;23.08;;;;;;;;;;5059065;28;20029;-88
2020/12/13 03:49:15;;;;;;;46.95;24.70;;;;;;;;;;5059167;28;20043;-86
2020/12/13 03:51:41;;;;;;;41.80;22.30;;;;;;;;;;5057724;28;20043;-87
2020/12/13 03:54:07;;;;;;;50.25;24.95;;;;;;;;;;5058696;28;20029;-87
2020/12/13 03:56:33;;;;;;;49.70;25.17;;;;;;;;;;5058970;28;20047;-87
2020/12/13 03:58:59;;;;;;;44.95;22.95;;;;;;;;;;5058726;28;20045;-87
2020/12/13 04:01:25;;;;;;;40.80;22.08;;;;;;;;;;5058543;28;20017;-87
2020/12/13 04:03:51;;;;;;;42.92;22.17;;;;;;;;;;5058524;28;20024;-87
2020/12/13 04:06:17;;;;;;;41.25;22.00;;;;;;;;;;5058665;28;20071;-87
2020/12/13 04:08:43;;;;;;;38.53;20.75;;;;;;;;;;5058523;28;20025;-87
2020/12/13 04:11:11;;;;;;;41.35;21.08;;;;;;;;;;5057263;28;20013;-88
2020/12/13 04:13:37;;;;;;;36.08;19.65;;;;;;;;;;5058404;28;20017;-88
2020/12/13 04:16:03;;;;;;;37.50;20.50;;;;;;;;;;5058433;28;20087;-87
2020/12/13 04:18:29;;;;;;;40.00;21.27;;;;;;;;;;5057303;28;20057;-87
2020/12/13 04:20:55;;;;;;;39.72;21.33;;;;;;;;;;5058574;28;20021;-86
2020/12/13 04:23:21;;;;;;;42.15;22.35;;;;;;;;;;5057960;28;20056;-86
2020/12/13 04:25:47;;;;;;;39.65;21.98;;;;;;;;;;5058123;28;20021;-87
2020/12/13 04:28:13;;;;;;;44.75;23.30;;;;;;;;;;5058429;28;20104;-87
2020/12/13 04:30:39;;;;;;;38.70;22.40;;;;;;;;;;5058358;28;20025;-87
2020/12/13 04:33:10;;;;;;;45.95;22.90;;;;;;;;;;5058149;28;20035;-87
2020/12/13 04:35:36;;;;;;;43.90;23.55;;;;;;;;;;5058267;28;20143;-86
2020/12/13 04:38:02;;;;;;;48.17;23.55;;;;;;;;;;5056850;28;20036;-86
2020/12/13 04:40:28;;;;;;;43.05;23.25;;;;;;;;;;5058080;28;20108;-87
2020/12/13 04:42:54;;;;;;;48.92;24.25;;;;;;;;;;5058128;28;20040;-86
2020/12/13 04:45:20;;;;;;;51.65;25.45;;;;;;;;;;5057998;28;20036;-86
2020/12/13 04:48:06;;;;;;;51.83;25.90;;;;;;;;;;5056835;28;20041;-87
2020/12/13 04:50:34;;;;;;;52.42;24.83;;;;;;;;;;5057017;28;20033;-87
2020/12/13 04:53:03;;;;;;;53.95;27.33;;;;;;;;;;5057641;28;20482;-86
2020/12/13 04:55:29;;;;;;;49.95;25.60;;;;;;;;;;5057980;28;20051;-87
2020/12/13 04:57:55;;;;;;;48.15;25.30;;;;;;;;;;5056665;28;20025;-86
2020/12/13 05:00:22;;;;;;;59.85;30.27;;;;;;;;;;5056548;28;20049;-87
2020/12/13 05:02:48;;;;;;;58.15;28.58;;;;;;;;;;5056659;28;20029;-86
2020/12/13 05:05:14;;;;;;;60.70;29.95;;;;;;;;;;5057746;28;20033;-87
2020/12/13 05:07:40;;;;;;;58.00;29.65;;;;;;;;;;5056816;28;20029;-86
2020/12/13 05:10:06;;;;;;;59.70;29.85;;;;;;;;;;5057454;28;20029;-87
2020/12/13 05:12:32;;;;;;;57.78;28.25;;;;;;;;;;5057622;28;20029;-86
2020/12/13 05:15:01;;;;;;;58.40;28.65;;;;;;;;;;5057455;28;20021;-87
2020/12/13 05:17:27;;;;;;;57.83;26.65;;;;;;;;;;5056418;28;20029;-86
2020/12/13 05:19:53;;;;;;;53.55;27.60;;;;;;;;;;5056445;28;20029;-86
2020/12/13 05:22:22;;;;;;;56.28;28.75;;;;;;;;;;5056470;28;20029;-86
2020/12/13 05:24:49;;;;;;;54.55;27.83;;;;;;;;;;5057232;28;20027;-86
2020/12/13 05:27:19;;;;;;;64.97;31.85;;;;;;;;;;5057211;28;20025;-85
2020/12/13 05:29:48;;;;;;;61.20;29.30;;;;;;;;;;5057685;28;20033;-85
2020/12/13 05:32:17;;;;;;;61.10;29.25;;;;;;;;;;5057221;28;20028;-85
2020/12/13 05:34:45;;;;;;;62.28;30.05;;;;;;;;;;5056355;28;20447;-86
2020/12/13 05:37:15;;;;;;;61.20;30.27;;;;;;;;;;5057036;28;20327;-88
2020/12/13 05:39:43;;;;;;;62.50;30.65;;;;;;;;;;5057417;28;20104;-87
2020/12/13 05:53:01;;;;;;;65.68;30.30;;;;;;;;;;5055508;28;20029;-86
2020/12/13 05:55:27;;;;;;;72.47;32.72;;;;;;;;;;5055685;28;20049;-85
2020/12/13 05:57:54;;;;;;;70.22;33.38;;;;;;;;;;5055582;28;20176;-86
2020/12/13 06:00:20;;;;;;;70.95;32.03;;;;;;;;;;5038578;28;20438;-87
2020/12/13 06:02:48;;;;;;;70.28;32.35;;;;;;;;;;5058300;28;20037;-87
2020/12/13 06:05:15;;;;;;;70.35;32.40;;;;;;;;;;5042484;28;20021;-87
2020/12/13 06:07:49;;;;;;;69.80;31.88;;;;;;;;;;5042517;28;20048;-87
2020/12/13 06:10:17;;;;;;;64.03;28.40;;;;;;;;;;5059009;28;20051;-86
2020/12/13 06:12:45;;;;;;;58.38;27.70;;;;;;;;;;5042416;28;20110;-86
2020/12/13 06:15:11;;;;;;;55.70;25.70;;;;;;;;;;5042559;28;20037;-86
2020/12/13 06:17:37;;;;;;;51.67;25.67;;;;;;;;;;5059121;28;20029;-86
2020/12/13 06:20:03;;;;;;;52.55;26.35;;;;;;;;;;5058918;28;20032;-86
2020/12/13 06:22:30;;;;;;;57.05;27.92;;;;;;;;;;5058877;28;20041;-87
2020/12/13 06:24:56;;;;;;;102.50;49.45;;;;;;;;;;5058787;28;20029;-86
2020/12/13 06:27:22;;;;;;;84.70;40.60;;;;;;;;;;5048740;28;20450;-87
2020/12/13 06:29:48;;;;;;;71.20;35.47;;;;;;;;;;5060673;28;20025;-86
2020/12/13 06:32:14;;;;;;;120.75;57.92;;;;;;;;;;5060626;28;20025;-86
2020/12/13 06:34:47;;;;;;;113.32;53.45;;;;;;;;;;5060285;28;20017;-86
2020/12/13 06:37:13;;;;;;;96.78;45.90;;;;;;;;;;5059357;28;20028;-87
2020/12/13 06:39:42;;;;;;;98.35;45.05;;;;;;;;;;5060555;28;20071;-87
2020/12/13 06:42:08;;;;;;;76.78;37.08;;;;;;;;;;5060272;28;20315;-86
2020/12/13 06:44:34;;;;;;;85.07;39.63;;;;;;;;;;5060448;28;20049;-87
2020/12/13 06:47:00;;;;;;;91.85;41.50;;;;;;;;;;5060140;28;20044;-87
2020/12/13 06:49:26;;;;;;;76.45;35.35;;;;;;;;;;5060340;28;20036;-87
2020/12/13 06:51:53;;;;;;;79.78;37.88;;;;;;;;;;5058912;28;20064;-87
2020/12/13 06:54:20;;;;;;;74.07;36.10;;;;;;;;;;5060260;28;20096;-88
2020/12/13 06:56:53;;;;;;;168.18;71.93;;;;;;;;;;5060223;28;20088;-87
2020/12/13 06:59:21;;;;;;;132.13;56.60;;;;;;;;;;5059659;28;20052;-87
2020/12/13 07:01:47;;;;;;;114.15;51.30;;;;;;;;;;5059059;28;20033;-87
2020/12/13 07:04:37;;;;;;;77.63;36.90;;;;;;;;;;5058802;28;20431;-86
2020/12/13 07:07:15;;;;;;;111.20;52.20;;;;;;;;;;5058619;28;20041;-87
2020/12/13 07:09:42;;;;;;;86.55;43.00;;;;;;;;;;5058939;28;20031;-86
2020/12/13 07:18:18;;;;;;;73.13;34.92;;;;;;;;;;5059648;28;20075;-87
2020/12/13 07:20:45;;;;;;;68.00;33.50;;;;;;;;;;5059366;28;20040;-88
2020/12/13 07:23:12;;;;;;;67.78;33.20;;;;;;;;;;5059147;28;20029;-87
2020/12/13 07:25:38;;;;;;;65.80;31.88;;;;;;;;;;5059769;28;20051;-88
2020/12/13 07:34:11;;;;;;;60.05;31.05;;;;;;;;;;5059448;28;20454;-87
2020/12/13 07:36:38;;;;;;;55.67;28.88;;;;;;;;;;5059303;28;20024;-87
2020/12/13 07:39:04;;;;;;;81.75;38.42;;;;;;;;;;5059045;28;20473;-87
2020/12/13 07:41:31;;;;;;;74.45;34.13;;;;;;;;;;5058900;28;20071;-88
2020/12/13 07:44:33;;;;;;;67.22;29.30;;;;;;;;;;5059301;28;20044;-87
2020/12/13 07:47:00;;;;;;;63.28;29.00;;;;;;;;;;5059023;28;20025;-87
2020/12/13 07:49:26;;;;;;;67.13;30.00;;;;;;;;;;5058909;28;20029;-86
2020/12/13 07:51:53;;;;;;;65.50;29.13;;;;;;;;;;5057812;28;20449;-86
2020/12/13 07:54:22;;;;;;;97.80;37.92;;;;;;;;;;5057835;28;20029;-86
2020/12/13 07:59:51;;;;;;;165.10;35.35;;;;;;;;;;5057151;28;20162;-86
2020/12/13 08:02:18;;;;;;;86.80;36.05;;;;;;;;;;5058666;28;20032;-86
2020/12/13 08:04:44;;;;;;;139.13;49.92;;;;;;;;;;5057547;28;20040;-86
2020/12/13 08:07:11;;;;;;;108.72;41.92;;;;;;;;;;5058590;28;20108;-86
2020/12/13 08:09:38;;;;;;;117.15;45.78;;;;;;;;;;5058697;28;20024;-86
2020/12/13 08:12:08;;;;;;;97.65;40.30;;;;;;;;;;5058662;28;20025;-86
2020/12/13 08:14:34;;;;;;;76.30;35.17;;;;;;;;;;5057586;28;20059;-87
2020/12/13 08:17:00;;;;;;;111.78;46.00;;;;;;;;;;5057262;28;20025;-86
2020/12/13 08:19:42;;;;;;;89.90;40.22;;;;;;;;;;5057387;28;20037;-87
2020/12/13 08:22:11;;;;;;;79.80;35.78;;;;;;;;;;5058329;28;20025;-86
2020/12/13 08:24:37;;;;;;;76.47;34.10;;;;;;;;;;5058127;28;20021;-87
2020/12/13 08:27:19;;;;;;;77.93;33.83;;;;;;;;;;5057250;28;20422;-85
2020/12/13 08:29:45;;;;;;;77.53;32.33;;;;;;;;;;5058158;28;20033;-85
2020/12/13 08:32:15;;;;;;;69.97;31.77;;;;;;;;;;5057924;28;20025;-85
2020/12/13 08:34:42;;;;;;;62.40;30.15;;;;;;;;;;5057956;28;20461;-86
2020/12/13 08:37:08;;;;;;;68.53;31.75;;;;;;;;;;5057174;28;20096;-86
2020/12/13 08:39:35;;;;;;;69.90;32.53;;;;;;;;;;5057744;28;20032;-86
2020/12/13 08:42:03;;;;;;;69.72;31.52;;;;;;;;;;5057958;28;20032;-87
2020/12/13 08:44:29;;;;;;;66.75;30.98;;;;;;;;;;5057935;28;20052;-87
2020/12/13 08:46:56;;;;;;;65.75;33.92;;;;;;;;;;5057843;28;20029;-86
2020/12/13 08:49:26;;;;;;;66.72;31.30;;;;;;;;;;5056836;28;20056;-86
2020/12/13 08:51:52;;;;;;;53.42;28.08;;;;;;;;;;5056763;28;20021;-87
2020/12/13 08:54:18;;;;;;;51.75;27.48;;;;;;;;;;5057964;28;20025;-86
2020/12/13 08:56:44;;;;;;;44.78;24.83;;;;;;;;;;5056475;28;20037;-87
2020/12/13 08:59:19;;;;;;;47.83;25.10;;;;;;;;;;5057556;28;20048;-87
2020/12/13 09:01:51;;;;;;;48.58;26.58;;;;;;;;;;5057496;28;20066;-86
2020/12/13 09:04:18;;;;;;;51.22;27.50;;;;;;;;;;5056635;28;20121;-87
2020/12/13 09:06:55;;;;;;;53.50;27.92;;;;;;;;;;5057457;28;20039;-88
2020/12/13 09:09:21;;;;;;;63.20;30.20;;;;;;;;;;5057569;28;20052;-88
2020/12/13 09:11:47;;;;;;;103.95;40.17;;;;;;;;;;5056477;28;20029;-88
2020/12/13 09:14:24;;;;;;;90.85;39.35;;;;;;;;;;5057499;28;20021;-88
2020/12/13 09:16:50;;;;;;;64.70;34.60;;;;;;;;;;5056608;28;20032;-88
2020/12/13 09:19:16;;;;;;;85.82;43.15;;;;;;;;;;5057212;28;20055;-88
2020/12/13 09:21:59;;;;;;;121.60;53.80;;;;;;;;;;5057857;28;20055;-88
2020/12/13 09:24:28;;;;;;;67.20;33.38;;;;;;;;;;5056554;28;20036;-88
2020/12/13 09:27:25;;;;;;;82.10;39.72;;;;;;;;;;5056584;28;20071;-87
2020/12/13 09:29:51;;;;;;;50.22;26.23;;;;;;;;;;5057214;28;20025;-88
2020/12/13 09:32:18;;;;;;;42.25;23.55;;;;;;;;;;5044752;28;20026;-86
2020/12/13 09:34:44;;;;;;;40.35;23.83;;;;;;;;;;5025852;28;20061;-87
2020/12/13 09:37:11;;;;;;;39.03;24.08;;;;;;;;;;5031634;28;20029;-88
2020/12/13 09:39:37;;;;;;;50.00;26.85;;;;;;;;;;5023298;28;20073;-88
2020/12/13 09:42:04;;;;;;;40.53;24.48;;;;;;;;;;5026331;28;20052;-86
2020/12/13 09:44:31;;;;;;;45.90;27.50;;;;;;;;;;5041409;28;20399;-89
2020/12/13 09:46:58;;;;;;;44.40;27.48;;;;;;;;;;5041254;28;20038;-87
2020/12/13 09:49:25;;;;;;;38.78;24.92;;;;;;;;;;5041568;28;20036;-88
2020/12/13 09:52:02;;;;;;;48.70;29.25;;;;;;;;;;5032617;28;20053;-87
2020/12/13 09:54:28;;;;;;;46.83;28.52;;;;;;;;;;5039767;28;20350;-88
2020/12/13 09:56:54;;;;;;;45.25;27.90;;;;;;;;;;5039711;28;20033;-87
2020/12/13 09:59:20;;;;;;;43.67;25.98;;;;;;;;;;5050196;28;20049;-87
2020/12/13 10:01:46;;;;;;;41.63;24.75;;;;;;;;;;5061035;28;20021;-88
2020/12/13 10:04:13;;;;;;;44.15;24.90;;;;;;;;;;5060961;28;20044;-86
2020/12/13 10:09:24;;;;;;;43.13;25.52;;;;;;;;;;5061153;28;20059;-86
2020/12/13 10:11:50;;;;;;;40.60;25.33;;;;;;;;;;5060755;28;20036;-86
2020/12/13 10:14:17;;;;;;;44.08;25.80;;;;;;;;;;5060824;28;20021;-87
2020/12/13 10:16:43;;;;;;;38.38;23.65;;;;;;;;;;5059760;28;20140;-88
2020/12/13 10:19:10;;;;;;;39.00;25.05;;;;;;;;;;5061279;28;20075;-87
2020/12/13 10:21:36;;;;;;;43.45;25.45;;;;;;;;;;5059575;28;20029;-88
2020/12/13 10:24:03;;;;;;;42.90;25.35;;;;;;;;;;5060471;28;20025;-88
2020/12/13 10:26:31;;;;;;;48.45;26.45;;;;;;;;;;5059649;28;20028;-87
2020/12/13 10:28:57;;;;;;;56.58;32.80;;;;;;;;;;5049862;28;20145;-85
2020/12/13 10:31:30;;;;;;;63.00;36.05;;;;;;;;;;5040303;28;20024;-88
2020/12/13 10:33:57;;;;;;;76.75;41.20;;;;;;;;;;5040444;28;20021;-88
2020/12/13 10:36:23;;;;;;;69.63;36.45;;;;;;;;;;5040304;28;20104;-88
2020/12/13 10:38:51;;;;;;;74.18;40.53;;;;;;;;;;5044234;28;20033;-88
2020/12/13 10:41:18;;;;;;;75.38;40.70;;;;;;;;;;5041233;28;20049;-86
2020/12/13 10:43:44;;;;;;;51.60;29.98;;;;;;;;;;5060347;28;20028;-89
2020/12/13 10:46:10;;;;;;;45.90;26.88;;;;;;;;;;5046456;28;20030;-88
2020/12/13 10:48:36;;;;;;;44.47;26.50;;;;;;;;;;5039184;28;20319;-87
2020/12/13 10:51:02;;;;;;;45.85;25.50;;;;;;;;;;5040343;28;20029;-88
2020/12/13 10:53:28;;;;;;;45.67;27.60;;;;;;;;;;5040284;28;20056;-87
2020/12/13 10:55:55;;;;;;;49.60;28.55;;;;;;;;;;5039313;28;20026;-88
2020/12/13 11:01:38;;;;;;;58.13;36.05;;;;;;;;;;5023064;28;20048;-87
2020/12/13 11:04:04;;;;;;;95.78;56.72;;;;;;;;;;5020821;28;20375;-88
2020/12/13 11:06:31;;;;;;;97.68;56.13;;;;;;;;;;5020328;28;20349;-88
2020/12/13 11:08:57;;;;;;;97.85;56.55;;;;;;;;;;5019703;28;20355;-88
2020/12/13 11:11:23;;;;;;;71.75;44.28;;;;;;;;;;5025092;28;20108;-88
2020/12/13 11:16:52;;;;;;;37.72;23.73;;;;;;;;;;5039954;28;20036;-88
2020/12/13 11:19:18;;;;;;;42.13;23.48;;;;;;;;;;5039125;28;20030;-87
2020/12/13 11:21:47;;;;;;;38.75;23.08;;;;;;;;;;5039725;28;20041;-89
2020/12/13 11:24:14;;;;;;;42.80;24.25;;;;;;;;;;5033258;28;20105;-88
2020/12/13 11:26:42;;;;;;;64.35;34.13;;;;;;;;;;5019594;28;20026;-89
2020/12/13 11:29:08;;;;;;;59.30;32.05;;;;;;;;;;5018577;28;20033;-88
2020/12/13 11:31:34;;;;;;;67.03;35.78;;;;;;;;;;5018253;28;20479;-89
2020/12/13 11:34:00;;;;;;;56.67;32.95;;;;;;;;;;5019530;28;20033;-90
2020/12/13 11:36:27;;;;;;;49.30;27.45;;;;;;;;;;5019409;28;20037;-88
2020/12/13 11:38:53;;;;;;;42.63;24.98;;;;;;;;;;5019231;28;20029;-89
2020/12/13 11:41:24;;;;;;;51.47;28.10;;;;;;;;;;5018826;28;20026;-88
2020/12/13 11:46:54;;;;;;;64.88;36.83;;;;;;;;;;5039297;28;20365;-92
2020/12/13 11:49:20;;;;;;;45.03;25.77;;;;;;;;;;5039087;28;20029;-93
2020/12/13 11:51:46;;;;;;;58.13;33.75;;;;;;;;;;5037947;28;20045;-92
2020/12/13 11:54:13;;;;;;;45.15;26.70;;;;;;;;;;5038234;28;20060;-92
2020/12/13 11:56:40;;;;;;;45.28;26.00;;;;;;;;;;5038159;28;20017;-92
2020/12/13 11:59:06;;;;;;;44.63;25.00;;;;;;;;;;5040047;28;20399;-92
2020/12/13 12:01:32;;;;;;;44.72;25.25;;;;;;;;;;5059138;28;20025;-91
2020/12/13 12:04:00;;;;;;;51.72;27.88;;;;;;;;;;5058391;28;20052;-91
2020/12/13 12:06:26;;;;;;;48.72;26.73;;;;;;;;;;5058682;28;20470;-92
2020/12/13 12:08:52;;;;;;;63.95;35.58;;;;;;;;;;5057806;28;20104;-93
2020/12/13 12:11:21;;;;;;;53.35;29.33;;;;;;;;;;5058902;28;20021;-93
2020/12/13 12:14:06;;;;;;;54.70;31.90;;;;;;;;;;5057597;28;20025;-91
2020/12/13 12:16:32;;;;;;;49.70;30.88;;;;;;;;;;5058534;28;20025;-96
2020/12/13 12:19:00;;;;;;;52.47;29.60;;;;;;;;;;5056730;28;20083;-91
2020/12/13 12:21:28;;;;;;;76.22;34.30;;;;;;;;;;5057055;28;20047;-91
2020/12/13 12:23:54;;;;;;;71.28;32.55;;;;;;;;;;5058518;28;20033;-92
2020/12/13 12:26:20;;;;;;;73.40;36.38;;;;;;;;;;5058141;28;20029;-92
2020/12/13 12:28:47;;;;;;;68.43;36.00;;;;;;;;;;5058105;28;20052;-91
2020/12/13 12:31:20;;;;;;;66.95;33.55;;;;;;;;;;5058184;28;20033;-92
2020/12/13 12:33:46;;;;;;;71.57;35.10;;;;;;;;;;5057193;28;20032;-92
2020/12/13 12:36:19;;;;;;;91.13;40.88;;;;;;;;;;5058718;28;20032;-91
2020/12/13 12:38:46;;;;;;;107.93;50.88;;;;;;;;;;5057445;28;20155;-90
2020/12/13 12:41:15;;;;;;;76.30;37.42;;;;;;;;;;5058441;28;20144;-90
2020/12/13 12:44:18;;;;;;;70.63;35.90;;;;;;;;;;5058444;28;20108;-90
2020/12/13 12:46:44;;;;;;;67.50;34.90;;;;;;;;;;5058089;28;20059;-90
2020/12/13 12:49:11;;;;;;;69.57;34.60;;;;;;;;;;5058065;28;20025;-89
2020/12/13 12:51:37;;;;;;;73.93;40.15;;;;;;;;;;5057773;28;20021;-88
2020/12/13 12:54:03;;;;;;;69.05;35.53;;;;;;;;;;5057091;28;20040;-88
2020/12/13 12:56:29;;;;;;;57.40;31.08;;;;;;;;;;5057654;28;20020;-88
2020/12/13 12:59:47;;;;;;;52.75;28.25;;;;;;;;;;5056931;28;20024;-87
2020/12/13 13:02:13;;;;;;;53.28;27.95;;;;;;;;;;5057827;28;20040;-90
2020/12/13 13:04:54;;;;;;;53.63;27.67;;;;;;;;;;5057047;28;20032;-89
2020/12/13 13:07:23;;;;;;;57.78;29.50;;;;;;;;;;5057717;28;20032;-89
2020/12/13 13:10:02;;;;;;;77.57;36.05;;;;;;;;;;5057838;28;20024;-89
2020/12/13 13:12:29;;;;;;;87.22;42.30;;;;;;;;;;5057235;28;20025;-89
2020/12/13 13:18:27;;;;;;;58.63;33.13;;;;;;;;;;5057586;28;20048;-90
2020/12/13 13:20:55;;;;;;;95.57;45.85;;;;;;;;;;5059588;28;20096;-90
2020/12/13 13:23:25;;;;;;;89.97;45.35;;;;;;;;;;5056593;28;20068;-89
2020/12/13 13:25:51;;;;;;;71.50;41.60;;;;;;;;;;5057431;28;20054;-90
2020/12/13 13:28:20;;;;;;;56.60;35.30;;;;;;;;;;5057819;28;20108;-90
2020/12/13 13:30:47;;;;;;;55.40;34.42;;;;;;;;;;5056550;28;20462;-89
2020/12/13 13:33:13;;;;;;;53.13;30.45;;;;;;;;;;5057632;28;20052;-90
2020/12/13 13:35:40;;;;;;;47.40;28.83;;;;;;;;;;5057428;28;20021;-89
2020/12/13 13:38:07;;;;;;;49.58;29.90;;;;;;;;;;5055634;28;20075;-89
2020/12/13 13:40:34;;;;;;;41.92;26.13;;;;;;;;;;5040831;28;20021;-89
2020/12/13 13:43:03;;;;;;;46.78;27.13;;;;;;;;;;5056178;28;20032;-90
2020/12/13 13:50:22;;;;;;;46.22;26.67;;;;;;;;;;5057623;28;20033;-89
2020/12/13 13:52:48;;;;;;;45.30;25.58;;;;;;;;;;5045968;28;20128;-88
2020/12/13 13:55:17;;;;;;;46.05;27.45;;;;;;;;;;5037443;28;20022;-89
2020/12/13 13:57:43;;;;;;;54.28;30.67;;;;;;;;;;5036467;28;20089;-89
2020/12/13 14:00:10;;;;;;;52.75;30.55;;;;;;;;;;5032781;28;20051;-87
2020/12/13 14:02:37;;;;;;;58.80;33.85;;;;;;;;;;5037502;28;20100;-87
2020/12/13 14:05:06;;;;;;;52.75;31.70;;;;;;;;;;5037226;28;20066;-86
2020/12/13 14:07:52;;;;;;;43.30;25.35;;;;;;;;;;5036906;28;20029;-87
2020/12/13 14:10:19;;;;;;;42.42;23.60;;;;;;;;;;5037307;28;20026;-87
2020/12/13 14:12:45;;;;;;;39.72;23.75;;;;;;;;;;5036823;28;20076;-88
2020/12/13 14:18:28;;;;;;;56.28;28.77;;;;;;;;;;5046679;28;20151;-87
2020/12/13 14:20:55;;;;;;;76.72;35.55;;;;;;;;;;5057207;28;20029;-88
2020/12/13 14:23:22;;;;;;;73.78;37.03;;;;;;;;;;5057300;28;20037;-87
2020/12/13 14:25:52;;;;;;;83.22;40.65;;;;;;;;;;5060416;28;20029;-87
2020/12/13 14:28:19;;;;;;;118.70;55.95;;;;;;;;;;5060881;28;20021;-87
2020/12/13 14:30:46;;;;;;;105.10;51.45;;;;;;;;;;5060216;28;20029;-88
2020/12/13 14:33:12;;;;;;;81.05;44.05;;;;;;;;;;5058995;28;20125;-88
2020/12/13 14:35:38;;;;;;;75.90;42.08;;;;;;;;;;5060407;28;20076;-87
2020/12/13 14:38:04;;;;;;;125.15;61.10;;;;;;;;;;5059494;28;20025;-87
2020/12/13 14:40:30;;;;;;;164.55;80.63;;;;;;;;;;5060507;28;20403;-87
2020/12/13 14:42:56;;;;;;;197.80;85.35;;;;;;;;;;5060190;28;20029;-87
2020/12/13 14:45:23;;;;;;;117.97;54.00;;;;;;;;;;5060339;28;20025;-87
2020/12/13 14:47:49;;;;;;;98.10;49.00;;;;;;;;;;5060449;28;20112;-88
2020/12/13 14:50:15;;;;;;;91.40;45.63;;;;;;;;;;5060025;28;20044;-87
2020/12/13 14:52:41;;;;;;;89.35;45.33;;;;;;;;;;5058892;28;20048;-87
2020/12/13 14:55:07;;;;;;;107.43;55.63;;;;;;;;;;5060038;28;20017;-88
2020/12/13 14:57:33;;;;;;;108.95;54.53;;;;;;;;;;5060021;28;20020;-87
2020/12/13 14:59:59;;;;;;;102.40;53.83;;;;;;;;;;5058561;28;20064;-88
2020/12/13 15:02:25;;;;;;;96.82;51.45;;;;;;;;;;5059879;28;20323;-87
2020/12/13 15:04:51;;;;;;;113.55;55.50;;;;;;;;;;5059794;28;20031;-87
2020/12/13 15:07:17;;;;;;;118.85;58.10;;;;;;;;;;5059801;28;20047;-87
2020/12/13 15:09:43;;;;;;;93.03;46.47;;;;;;;;;;5058692;28;20029;-87
2020/12/13 15:12:09;;;;;;;94.90;46.92;;;;;;;;;;5059628;28;20117;-87
2020/12/13 15:14:46;;;;;;;71.50;39.28;;;;;;;;;;5059670;28;20025;-87
2020/12/13 15:19:57;;;;;;;93.68;52.28;;;;;;;;;;5059542;28;20461;-88